sensor_id;sensor_type;location;lat;lon;timestamp;P1;durP1;ratioP1;P2;durP2;ratioP2
46363;SDS011;32071;49.036;9.344;2024-01-10T00:01:18;19.77;;;8.57;;
46363;SDS011;32071;49.036;9.344;2024-01-10T00:03:44;17.77;;;8.60;;
46363;SDS011;32071;49.036;9.344;2024-01-10T00:06:10;22.47;;;9.73;;
46363;SDS011;32071;49.036;9.344;2024-01-10T00:08:36;14.80;;;8.87;;
46363;SDS011;32071;49.036;9.344;2024-01-10T00:11:02;25.33;;;10.20;;
46363;SDS011;32071;49.036;9.344;2024-01-10T00:13:28;15.13;;;9.13;;
46363;SDS011;32071;49.036;9.344;2024-01-10T00:15:54;18.63;;;9.10;;
46363;SDS011;32071;49.036;9.344;2024-01-10T00:18:20;22.33;;;9.70;;
46363;SDS011;32071;49.036;9.344;2024-01-10T00:20:46;21.03;;;8.70;;
46363;SDS011;32071;49.036;9.344;2024-01-10T00:23:12;19.20;;;9.07;;
46363;SDS011;32071;49.036;9.344;2024-01-10T00:25:38;18.47;;;9.13;;
46363;SDS011;32071;49.036;9.344;2024-01-10T00:28:04;17.30;;;9.20;;
46363;SDS011;32071;49.036;9.344;2024-01-10T00:30:30;18.83;;;9.30;;
46363;SDS011;32071;49.036;9.344;2024-01-10T00:32:55;17.70;;;9.17;;
46363;SDS011;32071;49.036;9.344;2024-01-10T00:35:21;15.77;;;8.90;;
46363;SDS011;32071;49.036;9.344;2024-01-10T00:37:46;22.40;;;9.40;;
46363;SDS011;32071;49.036;9.344;2024-01-10T00:40:12;18.20;;;8.90;;
46363;SDS011;32071;49.036;9.344;2024-01-10T00:42:37;19.57;;;9.67;;
46363;SDS011;32071;49.036;9.344;2024-01-10T00:45:03;20.50;;;9.33;;
46363;SDS011;32071;49.036;9.344;2024-01-10T00:47:29;20.10;;;8.90;;
46363;SDS011;32071;49.036;9.344;2024-01-10T00:49:55;16.87;;;9.03;;
46363;SDS011;32071;49.036;9.344;2024-01-10T00:52:21;20.17;;;9.33;;
46363;SDS011;32071;49.036;9.344;2024-01-10T00:54:46;17.07;;;8.80;;
46363;SDS011;32071;49.036;9.344;2024-01-10T00:57:12;20.17;;;9.10;;
46363;SDS011;32071;49.036;9.344;2024-01-10T00:59:37;24.73;;;9.40;;
46363;SDS011;32071;49.036;9.344;2024-01-10T01:02:03;19.13;;;9.53;;
46363;SDS011;32071;49.036;9.344;2024-01-10T01:04:28;21.60;;;9.30;;
46363;SDS011;32071;49.036;9.344;2024-01-10T01:06:54;19.97;;;8.90;;
46363;SDS011;32071;49.036;9.344;2024-01-10T01:09:19;15.03;;;8.77;;
46363;SDS011;32071;49.036;9.344;2024-01-10T01:11:45;17.33;;;9.27;;
46363;SDS011;32071;49.036;9.344;2024-01-10T01:14:10;18.17;;;10.10;;
46363;SDS011;32071;49.036;9.344;2024-01-10T01:16:36;19.50;;;10.63;;
46363;SDS011;32071;49.036;9.344;2024-01-10T01:19:02;17.50;;;9.83;;
46363;SDS011;32071;49.036;9.344;2024-01-10T01:21:27;23.00;;;8.73;;
46363;SDS011;32071;49.036;9.344;2024-01-10T01:23:53;15.70;;;9.47;;
46363;SDS011;32071;49.036;9.344;2024-01-10T01:26:19;24.23;;;10.80;;
46363;SDS011;32071;49.036;9.344;2024-01-10T01:28:45;18.93;;;8.63;;
46363;SDS011;32071;49.036;9.344;2024-01-10T01:31:10;19.37;;;9.70;;
46363;SDS011;32071;49.036;9.344;2024-01-10T01:33:36;20.57;;;9.27;;
46363;SDS011;32071;49.036;9.344;2024-01-10T01:36:01;18.57;;;9.50;;
46363;SDS011;32071;49.036;9.344;2024-01-10T01:38:27;22.33;;;9.83;;
46363;SDS011;32071;49.036;9.344;2024-01-10T01:40:52;19.67;;;9.30;;
46363;SDS011;32071;49.036;9.344;2024-01-10T01:43:25;24.17;;;10.83;;
46363;SDS011;32071;49.036;9.344;2024-01-10T01:45:54;20.20;;;10.17;;
46363;SDS011;32071;49.036;9.344;2024-01-10T01:48:21;21.23;;;9.90;;
46363;SDS011;32071;49.036;9.344;2024-01-10T01:50:48;20.63;;;10.40;;
46363;SDS011;32071;49.036;9.344;2024-01-10T01:53:16;15.60;;;9.33;;
46363;SDS011;32071;49.036;9.344;2024-01-10T01:55:43;19.00;;;10.10;;
46363;SDS011;32071;49.036;9.344;2024-01-10T01:58:09;22.80;;;10.67;;
46363;SDS011;32071;49.036;9.344;2024-01-10T02:00:35;21.27;;;9.63;;
46363;SDS011;32071;49.036;9.344;2024-01-10T02:03:02;26.27;;;10.87;;
46363;SDS011;32071;49.036;9.344;2024-01-10T02:05:28;21.30;;;9.57;;
46363;SDS011;32071;49.036;9.344;2024-01-10T02:07:53;27.00;;;11.23;;
46363;SDS011;32071;49.036;9.344;2024-01-10T02:10:20;19.83;;;9.97;;
46363;SDS011;32071;49.036;9.344;2024-01-10T02:12:46;26.33;;;10.57;;
46363;SDS011;32071;49.036;9.344;2024-01-10T02:15:12;24.00;;;10.10;;
46363;SDS011;32071;49.036;9.344;2024-01-10T02:17:38;19.67;;;9.27;;
46363;SDS011;32071;49.036;9.344;2024-01-10T02:20:22;20.03;;;9.30;;
46363;SDS011;32071;49.036;9.344;2024-01-10T02:22:48;21.07;;;10.90;;
46363;SDS011;32071;49.036;9.344;2024-01-10T02:25:15;19.53;;;10.30;;
46363;SDS011;32071;49.036;9.344;2024-01-10T02:27:41;20.83;;;10.40;;
46363;SDS011;32071;49.036;9.344;2024-01-10T02:30:07;22.17;;;10.10;;
46363;SDS011;32071;49.036;9.344;2024-01-10T02:32:33;20.47;;;10.17;;
46363;SDS011;32071;49.036;9.344;2024-01-10T02:34:59;20.80;;;10.00;;
46363;SDS011;32071;49.036;9.344;2024-01-10T02:37:25;18.13;;;9.87;;
46363;SDS011;32071;49.036;9.344;2024-01-10T02:39:51;28.83;;;10.40;;
46363;SDS011;32071;49.036;9.344;2024-01-10T02:42:17;28.40;;;10.63;;
46363;SDS011;32071;49.036;9.344;2024-01-10T02:44:42;21.20;;;9.27;;
46363;SDS011;32071;49.036;9.344;2024-01-10T02:47:08;22.17;;;10.87;;
46363;SDS011;32071;49.036;9.344;2024-01-10T02:49:34;22.07;;;9.90;;
46363;SDS011;32071;49.036;9.344;2024-01-10T02:52:00;18.87;;;9.47;;
46363;SDS011;32071;49.036;9.344;2024-01-10T02:54:26;20.93;;;10.57;;
46363;SDS011;32071;49.036;9.344;2024-01-10T02:56:51;20.03;;;9.53;;
46363;SDS011;32071;49.036;9.344;2024-01-10T02:59:17;18.20;;;10.50;;
46363;SDS011;32071;49.036;9.344;2024-01-10T03:01:43;19.67;;;9.60;;
46363;SDS011;32071;49.036;9.344;2024-01-10T03:04:09;22.90;;;10.20;;
46363;SDS011;32071;49.036;9.344;2024-01-10T03:06:34;24.93;;;11.10;;
46363;SDS011;32071;49.036;9.344;2024-01-10T03:09:00;24.80;;;10.77;;
46363;SDS011;32071;49.036;9.344;2024-01-10T03:11:26;18.37;;;9.60;;
46363;SDS011;32071;49.036;9.344;2024-01-10T03:13:53;23.43;;;9.60;;
46363;SDS011;32071;49.036;9.344;2024-01-10T03:16:27;20.30;;;10.30;;
46363;SDS011;32071;49.036;9.344;2024-01-10T03:18:52;27.67;;;10.80;;
46363;SDS011;32071;49.036;9.344;2024-01-10T03:21:18;18.50;;;9.83;;
46363;SDS011;32071;49.036;9.344;2024-01-10T03:23:59;24.67;;;12.03;;
46363;SDS011;32071;49.036;9.344;2024-01-10T03:26:26;23.00;;;10.30;;
46363;SDS011;32071;49.036;9.344;2024-01-10T03:28:52;20.03;;;11.37;;
46363;SDS011;32071;49.036;9.344;2024-01-10T03:31:18;22.03;;;11.20;;
46363;SDS011;32071;49.036;9.344;2024-01-10T03:33:44;20.57;;;10.20;;
46363;SDS011;32071;49.036;9.344;2024-01-10T03:36:15;21.80;;;11.80;;
46363;SDS011;32071;49.036;9.344;2024-01-10T03:38:41;23.70;;;10.37;;
46363;SDS011;32071;49.036;9.344;2024-01-10T03:41:12;18.10;;;10.27;;
46363;SDS011;32071;49.036;9.344;2024-01-10T03:43:41;20.63;;;10.40;;
46363;SDS011;32071;49.036;9.344;2024-01-10T03:46:07;20.63;;;10.03;;
46363;SDS011;32071;49.036;9.344;2024-01-10T03:48:33;26.00;;;11.53;;
46363;SDS011;32071;49.036;9.344;2024-01-10T03:50:59;22.70;;;10.27;;
46363;SDS011;32071;49.036;9.344;2024-01-10T03:53:25;21.03;;;10.87;;
46363;SDS011;32071;49.036;9.344;2024-01-10T03:55:50;25.40;;;10.33;;
46363;SDS011;32071;49.036;9.344;2024-01-10T03:58:16;22.40;;;10.33;;
46363;SDS011;32071;49.036;9.344;2024-01-10T04:00:41;19.80;;;10.60;;
46363;SDS011;32071;49.036;9.344;2024-01-10T04:03:07;24.87;;;11.30;;
46363;SDS011;32071;49.036;9.344;2024-01-10T04:05:32;20.83;;;10.40;;
46363;SDS011;32071;49.036;9.344;2024-01-10T04:07:58;25.00;;;11.50;;
46363;SDS011;32071;49.036;9.344;2024-01-10T04:10:23;26.70;;;10.87;;
46363;SDS011;32071;49.036;9.344;2024-01-10T04:12:49;25.70;;;10.40;;
46363;SDS011;32071;49.036;9.344;2024-01-10T04:15:15;21.17;;;10.40;;
46363;SDS011;32071;49.036;9.344;2024-01-10T04:17:42;25.27;;;10.37;;
46363;SDS011;32071;49.036;9.344;2024-01-10T04:20:08;21.20;;;10.50;;
46363;SDS011;32071;49.036;9.344;2024-01-10T04:22:34;21.37;;;10.23;;
46363;SDS011;32071;49.036;9.344;2024-01-10T04:25:00;29.73;;;11.87;;
46363;SDS011;32071;49.036;9.344;2024-01-10T04:27:27;27.60;;;10.63;;
46363;SDS011;32071;49.036;9.344;2024-01-10T04:29:53;31.30;;;11.57;;
46363;SDS011;32071;49.036;9.344;2024-01-10T04:32:19;22.67;;;10.47;;
46363;SDS011;32071;49.036;9.344;2024-01-10T04:34:45;22.40;;;10.40;;
46363;SDS011;32071;49.036;9.344;2024-01-10T04:37:10;22.07;;;10.47;;
46363;SDS011;32071;49.036;9.344;2024-01-10T04:39:36;20.53;;;10.50;;
46363;SDS011;32071;49.036;9.344;2024-01-10T04:42:07;24.33;;;11.40;;
46363;SDS011;32071;49.036;9.344;2024-01-10T04:44:35;31.00;;;12.87;;
46363;SDS011;32071;49.036;9.344;2024-01-10T04:47:01;27.90;;;13.47;;
46363;SDS011;32071;49.036;9.344;2024-01-10T04:49:26;25.93;;;12.97;;
46363;SDS011;32071;49.036;9.344;2024-01-10T04:51:52;27.67;;;12.80;;
46363;SDS011;32071;49.036;9.344;2024-01-10T04:54:17;26.43;;;12.30;;
46363;SDS011;32071;49.036;9.344;2024-01-10T04:56:43;26.93;;;13.27;;
46363;SDS011;32071;49.036;9.344;2024-01-10T04:59:08;21.83;;;11.53;;
46363;SDS011;32071;49.036;9.344;2024-01-10T05:01:34;25.63;;;12.23;;
46363;SDS011;32071;49.036;9.344;2024-01-10T05:04:01;23.57;;;11.33;;
46363;SDS011;32071;49.036;9.344;2024-01-10T05:06:27;27.20;;;12.10;;
46363;SDS011;32071;49.036;9.344;2024-01-10T05:08:53;18.23;;;11.43;;
46363;SDS011;32071;49.036;9.344;2024-01-10T05:11:22;24.87;;;11.50;;
46363;SDS011;32071;49.036;9.344;2024-01-10T05:13:49;23.37;;;11.73;;
46363;SDS011;32071;49.036;9.344;2024-01-10T05:16:15;23.20;;;10.40;;
46363;SDS011;32071;49.036;9.344;2024-01-10T05:18:40;21.70;;;11.37;;
46363;SDS011;32071;49.036;9.344;2024-01-10T05:21:06;23.50;;;12.53;;
46363;SDS011;32071;49.036;9.344;2024-01-10T05:23:32;22.50;;;11.17;;
46363;SDS011;32071;49.036;9.344;2024-01-10T05:25:57;24.30;;;11.70;;
46363;SDS011;32071;49.036;9.344;2024-01-10T05:28:23;25.87;;;10.57;;
46363;SDS011;32071;49.036;9.344;2024-01-10T05:30:49;21.37;;;11.43;;
46363;SDS011;32071;49.036;9.344;2024-01-10T05:33:15;24.30;;;11.63;;
46363;SDS011;32071;49.036;9.344;2024-01-10T05:35:40;23.23;;;10.60;;
46363;SDS011;32071;49.036;9.344;2024-01-10T05:38:06;32.37;;;12.17;;
46363;SDS011;32071;49.036;9.344;2024-01-10T05:40:32;26.83;;;12.60;;
46363;SDS011;32071;49.036;9.344;2024-01-10T05:42:58;22.93;;;11.77;;
46363;SDS011;32071;49.036;9.344;2024-01-10T05:45:26;27.03;;;12.93;;
46363;SDS011;32071;49.036;9.344;2024-01-10T05:47:53;26.90;;;11.70;;
46363;SDS011;32071;49.036;9.344;2024-01-10T05:50:19;26.83;;;11.63;;
46363;SDS011;32071;49.036;9.344;2024-01-10T05:52:45;23.27;;;11.80;;
46363;SDS011;32071;49.036;9.344;2024-01-10T05:55:11;26.30;;;11.60;;
46363;SDS011;32071;49.036;9.344;2024-01-10T05:57:36;24.13;;;12.00;;
46363;SDS011;32071;49.036;9.344;2024-01-10T06:00:02;26.93;;;11.37;;
46363;SDS011;32071;49.036;9.344;2024-01-10T06:02:29;24.33;;;11.60;;
46363;SDS011;32071;49.036;9.344;2024-01-10T06:04:55;22.80;;;11.40;;
46363;SDS011;32071;49.036;9.344;2024-01-10T06:07:20;22.93;;;11.70;;
46363;SDS011;32071;49.036;9.344;2024-01-10T06:09:46;23.00;;;11.57;;
46363;SDS011;32071;49.036;9.344;2024-01-10T06:12:12;22.00;;;12.10;;
46363;SDS011;32071;49.036;9.344;2024-01-10T06:14:38;23.83;;;11.03;;
46363;SDS011;32071;49.036;9.344;2024-01-10T06:17:04;25.03;;;11.70;;
46363;SDS011;32071;49.036;9.344;2024-01-10T06:19:30;27.33;;;11.90;;
46363;SDS011;32071;49.036;9.344;2024-01-10T06:21:56;27.03;;;12.13;;
46363;SDS011;32071;49.036;9.344;2024-01-10T06:24:22;24.30;;;12.70;;
46363;SDS011;32071;49.036;9.344;2024-01-10T06:26:48;26.50;;;12.37;;
46363;SDS011;32071;49.036;9.344;2024-01-10T06:29:14;29.00;;;12.40;;
46363;SDS011;32071;49.036;9.344;2024-01-10T06:31:40;21.90;;;11.50;;
46363;SDS011;32071;49.036;9.344;2024-01-10T06:34:06;21.23;;;12.40;;
46363;SDS011;32071;49.036;9.344;2024-01-10T06:36:31;22.37;;;11.37;;
46363;SDS011;32071;49.036;9.344;2024-01-10T06:38:57;21.93;;;11.77;;
46363;SDS011;32071;49.036;9.344;2024-01-10T06:41:22;26.20;;;12.00;;
46363;SDS011;32071;49.036;9.344;2024-01-10T06:43:49;32.80;;;13.07;;
46363;SDS011;32071;49.036;9.344;2024-01-10T06:46:16;23.33;;;11.53;;
46363;SDS011;32071;49.036;9.344;2024-01-10T06:48:41;24.77;;;11.60;;
46363;SDS011;32071;49.036;9.344;2024-01-10T06:51:10;24.73;;;12.20;;
46363;SDS011;32071;49.036;9.344;2024-01-10T06:53:37;33.03;;;12.47;;
46363;SDS011;32071;49.036;9.344;2024-01-10T06:56:03;27.10;;;11.10;;
46363;SDS011;32071;49.036;9.344;2024-01-10T06:58:29;26.50;;;12.77;;
46363;SDS011;32071;49.036;9.344;2024-01-10T07:00:55;23.77;;;12.00;;
46363;SDS011;32071;49.036;9.344;2024-01-10T07:03:20;29.07;;;12.73;;
46363;SDS011;32071;49.036;9.344;2024-01-10T07:05:46;26.40;;;12.07;;
46363;SDS011;32071;49.036;9.344;2024-01-10T07:08:11;26.70;;;12.23;;
46363;SDS011;32071;49.036;9.344;2024-01-10T07:10:37;26.47;;;12.87;;
46363;SDS011;32071;49.036;9.344;2024-01-10T07:13:03;25.30;;;12.30;;
46363;SDS011;32071;49.036;9.344;2024-01-10T07:15:29;30.83;;;13.10;;
46363;SDS011;32071;49.036;9.344;2024-01-10T07:17:55;29.57;;;12.97;;
46363;SDS011;32071;49.036;9.344;2024-01-10T07:20:20;29.67;;;12.63;;
46363;SDS011;32071;49.036;9.344;2024-01-10T07:22:49;27.40;;;11.37;;
46363;SDS011;32071;49.036;9.344;2024-01-10T07:25:14;26.97;;;12.10;;
46363;SDS011;32071;49.036;9.344;2024-01-10T07:27:40;26.13;;;12.30;;
46363;SDS011;32071;49.036;9.344;2024-01-10T07:30:06;25.50;;;12.70;;
46363;SDS011;32071;49.036;9.344;2024-01-10T07:32:38;22.90;;;12.47;;
46363;SDS011;32071;49.036;9.344;2024-01-10T07:35:04;25.77;;;14.20;;
46363;SDS011;32071;49.036;9.344;2024-01-10T07:37:30;26.90;;;11.90;;
46363;SDS011;32071;49.036;9.344;2024-01-10T07:39:56;25.37;;;13.10;;
46363;SDS011;32071;49.036;9.344;2024-01-10T07:42:22;27.40;;;12.37;;
46363;SDS011;32071;49.036;9.344;2024-01-10T07:44:48;24.90;;;12.30;;
46363;SDS011;32071;49.036;9.344;2024-01-10T07:47:14;24.30;;;12.60;;
46363;SDS011;32071;49.036;9.344;2024-01-10T07:49:39;23.33;;;11.50;;
46363;SDS011;32071;49.036;9.344;2024-01-10T07:52:05;29.87;;;12.30;;
46363;SDS011;32071;49.036;9.344;2024-01-10T07:54:30;27.10;;;12.37;;
46363;SDS011;32071;49.036;9.344;2024-01-10T07:56:57;31.23;;;13.60;;
46363;SDS011;32071;49.036;9.344;2024-01-10T07:59:23;26.30;;;13.03;;
46363;SDS011;32071;49.036;9.344;2024-01-10T08:01:56;22.40;;;12.80;;
46363;SDS011;32071;49.036;9.344;2024-01-10T08:04:23;30.13;;;13.27;;
46363;SDS011;32071;49.036;9.344;2024-01-10T08:06:51;22.43;;;12.73;;
46363;SDS011;32071;49.036;9.344;2024-01-10T08:09:16;25.47;;;13.33;;
46363;SDS011;32071;49.036;9.344;2024-01-10T08:11:44;26.13;;;13.47;;
46363;SDS011;32071;49.036;9.344;2024-01-10T08:14:10;27.93;;;14.20;;
46363;SDS011;32071;49.036;9.344;2024-01-10T08:16:35;24.17;;;13.60;;
46363;SDS011;32071;49.036;9.344;2024-01-10T08:19:01;30.67;;;14.23;;
46363;SDS011;32071;49.036;9.344;2024-01-10T08:21:26;23.17;;;12.50;;
46363;SDS011;32071;49.036;9.344;2024-01-10T08:23:52;31.60;;;13.77;;
46363;SDS011;32071;49.036;9.344;2024-01-10T08:26:17;25.63;;;12.90;;
46363;SDS011;32071;49.036;9.344;2024-01-10T08:28:43;25.67;;;13.10;;
46363;SDS011;32071;49.036;9.344;2024-01-10T08:31:09;23.93;;;13.83;;
46363;SDS011;32071;49.036;9.344;2024-01-10T08:33:34;32.73;;;15.70;;
46363;SDS011;32071;49.036;9.344;2024-01-10T08:36:00;25.03;;;13.57;;
46363;SDS011;32071;49.036;9.344;2024-01-10T08:38:25;29.90;;;13.87;;
46363;SDS011;32071;49.036;9.344;2024-01-10T08:40:51;26.50;;;13.43;;
46363;SDS011;32071;49.036;9.344;2024-01-10T08:43:16;25.20;;;12.63;;
46363;SDS011;32071;49.036;9.344;2024-01-10T08:45:43;30.23;;;14.07;;
46363;SDS011;32071;49.036;9.344;2024-01-10T08:48:09;25.03;;;12.43;;
46363;SDS011;32071;49.036;9.344;2024-01-10T08:50:37;22.03;;;13.70;;
46363;SDS011;32071;49.036;9.344;2024-01-10T08:53:02;26.43;;;12.87;;
46363;SDS011;32071;49.036;9.344;2024-01-10T08:55:30;32.13;;;14.90;;
46363;SDS011;32071;49.036;9.344;2024-01-10T08:57:56;30.27;;;14.17;;
46363;SDS011;32071;49.036;9.344;2024-01-10T09:00:22;21.90;;;11.90;;
46363;SDS011;32071;49.036;9.344;2024-01-10T09:02:49;28.60;;;12.83;;
46363;SDS011;32071;49.036;9.344;2024-01-10T09:05:15;42.03;;;15.07;;
46363;SDS011;32071;49.036;9.344;2024-01-10T09:07:41;32.30;;;14.80;;
46363;SDS011;32071;49.036;9.344;2024-01-10T09:10:07;29.87;;;13.60;;
46363;SDS011;32071;49.036;9.344;2024-01-10T09:12:33;33.43;;;15.47;;
46363;SDS011;32071;49.036;9.344;2024-01-10T09:14:59;31.43;;;14.30;;
46363;SDS011;32071;49.036;9.344;2024-01-10T09:17:25;30.77;;;15.00;;
46363;SDS011;32071;49.036;9.344;2024-01-10T09:19:52;25.30;;;13.10;;
46363;SDS011;32071;49.036;9.344;2024-01-10T09:22:18;25.27;;;13.60;;
46363;SDS011;32071;49.036;9.344;2024-01-10T09:24:44;24.40;;;13.67;;
46363;SDS011;32071;49.036;9.344;2024-01-10T09:27:10;27.37;;;15.40;;
46363;SDS011;32071;49.036;9.344;2024-01-10T09:29:36;29.50;;;16.43;;
46363;SDS011;32071;49.036;9.344;2024-01-10T09:32:02;28.00;;;13.90;;
46363;SDS011;32071;49.036;9.344;2024-01-10T09:34:27;24.83;;;14.30;;
46363;SDS011;32071;49.036;9.344;2024-01-10T09:36:53;25.20;;;14.40;;
46363;SDS011;32071;49.036;9.344;2024-01-10T09:39:19;31.33;;;15.00;;
46363;SDS011;32071;49.036;9.344;2024-01-10T09:41:48;28.30;;;15.03;;
46363;SDS011;32071;49.036;9.344;2024-01-10T09:44:15;30.17;;;15.43;;
46363;SDS011;32071;49.036;9.344;2024-01-10T09:46:43;26.80;;;14.07;;
46363;SDS011;32071;49.036;9.344;2024-01-10T09:49:13;31.70;;;14.60;;
46363;SDS011;32071;49.036;9.344;2024-01-10T09:51:39;33.53;;;14.97;;
46363;SDS011;32071;49.036;9.344;2024-01-10T09:54:04;32.30;;;14.97;;
46363;SDS011;32071;49.036;9.344;2024-01-10T09:56:31;33.60;;;16.40;;
46363;SDS011;32071;49.036;9.344;2024-01-10T09:58:58;25.47;;;14.10;;
46363;SDS011;32071;49.036;9.344;2024-01-10T10:01:25;29.73;;;15.70;;
46363;SDS011;32071;49.036;9.344;2024-01-10T10:03:52;28.70;;;15.77;;
46363;SDS011;32071;49.036;9.344;2024-01-10T10:06:21;33.37;;;15.50;;
46363;SDS011;32071;49.036;9.344;2024-01-10T10:08:47;28.53;;;15.73;;
46363;SDS011;32071;49.036;9.344;2024-01-10T10:11:13;29.20;;;15.10;;
46363;SDS011;32071;49.036;9.344;2024-01-10T10:13:41;31.43;;;15.97;;
46363;SDS011;32071;49.036;9.344;2024-01-10T10:16:07;35.10;;;17.30;;
46363;SDS011;32071;49.036;9.344;2024-01-10T10:18:34;28.20;;;15.13;;
46363;SDS011;32071;49.036;9.344;2024-01-10T10:23:36;29.77;;;15.80;;
46363;SDS011;32071;49.036;9.344;2024-01-10T10:28:50;37.57;;;16.20;;
46363;SDS011;32071;49.036;9.344;2024-01-10T10:31:18;27.30;;;15.17;;
46363;SDS011;32071;49.036;9.344;2024-01-10T10:33:45;31.20;;;14.40;;
46363;SDS011;32071;49.036;9.344;2024-01-10T10:36:13;30.97;;;16.03;;
46363;SDS011;32071;49.036;9.344;2024-01-10T10:38:39;32.77;;;16.80;;
46363;SDS011;32071;49.036;9.344;2024-01-10T10:41:05;30.50;;;15.27;;
46363;SDS011;32071;49.036;9.344;2024-01-10T10:43:35;32.83;;;16.03;;
46363;SDS011;32071;49.036;9.344;2024-01-10T10:46:03;31.70;;;16.97;;
46363;SDS011;32071;49.036;9.344;2024-01-10T10:48:33;31.43;;;15.80;;
46363;SDS011;32071;49.036;9.344;2024-01-10T10:51:06;29.47;;;15.73;;
46363;SDS011;32071;49.036;9.344;2024-01-10T10:53:35;28.97;;;16.07;;
46363;SDS011;32071;49.036;9.344;2024-01-10T10:56:05;26.53;;;15.70;;
46363;SDS011;32071;49.036;9.344;2024-01-10T10:58:33;33.63;;;16.97;;
46363;SDS011;32071;49.036;9.344;2024-01-10T11:01:02;31.07;;;14.83;;
46363;SDS011;32071;49.036;9.344;2024-01-10T11:03:30;30.67;;;16.30;;
46363;SDS011;32071;49.036;9.344;2024-01-10T11:05:58;27.97;;;14.87;;
46363;SDS011;32071;49.036;9.344;2024-01-10T11:08:25;33.20;;;15.37;;
46363;SDS011;32071;49.036;9.344;2024-01-10T11:10:52;27.50;;;15.43;;
46363;SDS011;32071;49.036;9.344;2024-01-10T11:24:51;33.40;;;17.30;;
46363;SDS011;32071;49.036;9.344;2024-01-10T11:27:17;32.27;;;17.50;;
46363;SDS011;32071;49.036;9.344;2024-01-10T11:29:45;33.07;;;16.97;;
46363;SDS011;32071;49.036;9.344;2024-01-10T11:32:15;35.53;;;17.23;;
46363;SDS011;32071;49.036;9.344;2024-01-10T11:35:00;31.20;;;16.40;;
46363;SDS011;32071;49.036;9.344;2024-01-10T11:37:38;34.37;;;17.97;;
46363;SDS011;32071;49.036;9.344;2024-01-10T11:40:07;31.30;;;16.53;;
46363;SDS011;32071;49.036;9.344;2024-01-10T11:45:09;31.70;;;16.17;;
46363;SDS011;32071;49.036;9.344;2024-01-10T11:47:44;29.53;;;17.53;;
46363;SDS011;32071;49.036;9.344;2024-01-10T11:50:10;27.93;;;15.57;;
46363;SDS011;32071;49.036;9.344;2024-01-10T11:52:46;36.20;;;17.67;;
46363;SDS011;32071;49.036;9.344;2024-01-10T11:55:12;31.03;;;17.33;;
46363;SDS011;32071;49.036;9.344;2024-01-10T11:58:11;34.63;;;16.50;;
46363;SDS011;32071;49.036;9.344;2024-01-10T12:00:37;30.20;;;16.20;;
46363;SDS011;32071;49.036;9.344;2024-01-10T12:03:03;31.80;;;16.63;;
46363;SDS011;32071;49.036;9.344;2024-01-10T12:05:29;32.67;;;16.80;;
46363;SDS011;32071;49.036;9.344;2024-01-10T12:07:55;32.30;;;17.17;;
46363;SDS011;32071;49.036;9.344;2024-01-10T12:10:20;33.83;;;17.83;;
46363;SDS011;32071;49.036;9.344;2024-01-10T12:12:46;29.13;;;15.63;;
46363;SDS011;32071;49.036;9.344;2024-01-10T12:15:11;29.90;;;15.77;;
46363;SDS011;32071;49.036;9.344;2024-01-10T12:17:37;31.60;;;17.60;;
46363;SDS011;32071;49.036;9.344;2024-01-10T12:20:03;38.07;;;17.00;;
46363;SDS011;32071;49.036;9.344;2024-01-10T12:22:30;24.30;;;14.33;;
46363;SDS011;32071;49.036;9.344;2024-01-10T12:24:56;29.53;;;15.70;;
46363;SDS011;32071;49.036;9.344;2024-01-10T12:27:29;27.30;;;14.90;;
46363;SDS011;32071;49.036;9.344;2024-01-10T12:29:55;35.83;;;17.07;;
46363;SDS011;32071;49.036;9.344;2024-01-10T12:32:21;28.87;;;16.23;;
46363;SDS011;32071;49.036;9.344;2024-01-10T12:34:54;33.50;;;16.23;;
46363;SDS011;32071;49.036;9.344;2024-01-10T12:37:24;32.23;;;16.37;;
46363;SDS011;32071;49.036;9.344;2024-01-10T12:39:50;30.10;;;16.20;;
46363;SDS011;32071;49.036;9.344;2024-01-10T12:42:15;35.73;;;16.67;;
46363;SDS011;32071;49.036;9.344;2024-01-10T12:44:44;33.20;;;16.60;;
46363;SDS011;32071;49.036;9.344;2024-01-10T12:47:17;37.67;;;18.63;;
46363;SDS011;32071;49.036;9.344;2024-01-10T12:49:47;34.07;;;17.23;;
46363;SDS011;32071;49.036;9.344;2024-01-10T12:52:13;36.47;;;18.47;;
46363;SDS011;32071;49.036;9.344;2024-01-10T12:54:39;33.43;;;17.97;;
46363;SDS011;32071;49.036;9.344;2024-01-10T12:57:05;32.93;;;18.27;;
46363;SDS011;32071;49.036;9.344;2024-01-10T12:59:31;31.80;;;17.90;;
46363;SDS011;32071;49.036;9.344;2024-01-10T13:01:57;33.63;;;17.87;;
46363;SDS011;32071;49.036;9.344;2024-01-10T13:04:23;33.93;;;18.50;;
46363;SDS011;32071;49.036;9.344;2024-01-10T13:06:49;33.77;;;19.07;;
46363;SDS011;32071;49.036;9.344;2024-01-10T13:09:14;33.73;;;18.43;;
46363;SDS011;32071;49.036;9.344;2024-01-10T13:11:40;33.87;;;20.50;;
46363;SDS011;32071;49.036;9.344;2024-01-10T13:14:06;36.33;;;20.20;;
46363;SDS011;32071;49.036;9.344;2024-01-10T13:16:31;30.53;;;18.00;;
46363;SDS011;32071;49.036;9.344;2024-01-10T13:18:58;33.83;;;19.47;;
46363;SDS011;32071;49.036;9.344;2024-01-10T13:21:24;34.30;;;17.97;;
46363;SDS011;32071;49.036;9.344;2024-01-10T13:23:50;36.03;;;19.07;;
46363;SDS011;32071;49.036;9.344;2024-01-10T13:26:16;30.93;;;18.50;;
46363;SDS011;32071;49.036;9.344;2024-01-10T13:28:42;36.23;;;18.73;;
46363;SDS011;32071;49.036;9.344;2024-01-10T13:31:08;37.17;;;19.53;;
46363;SDS011;32071;49.036;9.344;2024-01-10T13:33:34;32.47;;;18.50;;
46363;SDS011;32071;49.036;9.344;2024-01-10T13:36:00;33.67;;;18.50;;
46363;SDS011;32071;49.036;9.344;2024-01-10T13:38:25;32.30;;;17.67;;
46363;SDS011;32071;49.036;9.344;2024-01-10T13:40:51;35.77;;;18.77;;
46363;SDS011;32071;49.036;9.344;2024-01-10T13:43:17;30.87;;;18.63;;
46363;SDS011;32071;49.036;9.344;2024-01-10T13:45:42;33.57;;;19.07;;
46363;SDS011;32071;49.036;9.344;2024-01-10T13:48:08;31.47;;;17.87;;
46363;SDS011;32071;49.036;9.344;2024-01-10T13:50:35;35.57;;;19.40;;
46363;SDS011;32071;49.036;9.344;2024-01-10T13:53:01;35.77;;;18.83;;
46363;SDS011;32071;49.036;9.344;2024-01-10T13:55:27;34.77;;;17.60;;
46363;SDS011;32071;49.036;9.344;2024-01-10T13:57:53;33.50;;;17.67;;
46363;SDS011;32071;49.036;9.344;2024-01-10T14:00:20;33.57;;;17.80;;
46363;SDS011;32071;49.036;9.344;2024-01-10T14:02:46;32.97;;;17.70;;
46363;SDS011;32071;49.036;9.344;2024-01-10T14:05:12;29.97;;;17.70;;
46363;SDS011;32071;49.036;9.344;2024-01-10T14:07:37;36.20;;;20.37;;
46363;SDS011;32071;49.036;9.344;2024-01-10T14:10:03;37.50;;;19.50;;
46363;SDS011;32071;49.036;9.344;2024-01-10T14:12:29;35.10;;;20.20;;
46363;SDS011;32071;49.036;9.344;2024-01-10T14:14:55;35.50;;;18.43;;
46363;SDS011;32071;49.036;9.344;2024-01-10T14:17:21;31.27;;;18.50;;
46363;SDS011;32071;49.036;9.344;2024-01-10T14:19:47;31.43;;;17.57;;
46363;SDS011;32071;49.036;9.344;2024-01-10T14:22:14;29.43;;;15.83;;
46363;SDS011;32071;49.036;9.344;2024-01-10T14:24:42;29.77;;;16.97;;
46363;SDS011;32071;49.036;9.344;2024-01-10T14:27:08;30.63;;;17.00;;
46363;SDS011;32071;49.036;9.344;2024-01-10T14:29:34;33.73;;;17.33;;
46363;SDS011;32071;49.036;9.344;2024-01-10T14:31:59;35.20;;;18.70;;
46363;SDS011;32071;49.036;9.344;2024-01-10T14:34:25;34.50;;;18.80;;
46363;SDS011;32071;49.036;9.344;2024-01-10T14:36:50;39.27;;;18.93;;
46363;SDS011;32071;49.036;9.344;2024-01-10T14:39:16;39.00;;;19.40;;